sensor_id;sensor_type;location;lat;lon;timestamp;P1;durP1;ratioP1;P2;durP2;ratioP2
19107;SDS011;9686;48.832;9.126;2023-07-29T00:02:07;3.20;;;2.00;;
19107;SDS011;9686;48.832;9.126;2023-07-29T00:04:32;2.57;;;2.17;;
19107;SDS011;9686;48.832;9.126;2023-07-29T00:06:57;4.60;;;1.93;;
19107;SDS011;9686;48.832;9.126;2023-07-29T00:09:23;4.03;;;2.20;;
19107;SDS011;9686;48.832;9.126;2023-07-29T00:11:48;2.97;;;2.77;;
19107;SDS011;9686;48.832;9.126;2023-07-29T00:14:14;4.13;;;2.17;;
19107;SDS011;9686;48.832;9.126;2023-07-29T00:16:39;2.27;;;1.77;;
19107;SDS011;9686;48.832;9.126;2023-07-29T00:19:04;4.20;;;2.23;;
19107;SDS011;9686;48.832;9.126;2023-07-29T00:21:30;3.40;;;2.07;;
19107;SDS011;9686;48.832;9.126;2023-07-29T00:23:55;3.77;;;2.10;;
19107;SDS011;9686;48.832;9.126;2023-07-29T00:26:22;2.87;;;2.37;;
19107;SDS011;9686;48.832;9.126;2023-07-29T00:28:48;2.90;;;2.13;;
19107;SDS011;9686;48.832;9.126;2023-07-29T00:31:13;3.83;;;2.17;;
19107;SDS011;9686;48.832;9.126;2023-07-29T00:33:38;4.13;;;2.13;;
19107;SDS011;9686;48.832;9.126;2023-07-29T00:36:04;3.17;;;2.13;;
19107;SDS011;9686;48.832;9.126;2023-07-29T00:38:29;2.67;;;2.33;;
19107;SDS011;9686;48.832;9.126;2023-07-29T00:40:56;3.17;;;2.17;;
19107;SDS011;9686;48.832;9.126;2023-07-29T00:43:22;3.47;;;2.30;;
19107;SDS011;9686;48.832;9.126;2023-07-29T00:45:47;2.97;;;2.30;;
19107;SDS011;9686;48.832;9.126;2023-07-29T00:48:12;4.53;;;2.60;;
19107;SDS011;9686;48.832;9.126;2023-07-29T00:50:38;2.70;;;2.50;;
19107;SDS011;9686;48.832;9.126;2023-07-29T00:53:03;2.40;;;2.20;;
19107;SDS011;9686;48.832;9.126;2023-07-29T00:55:29;2.63;;;2.43;;
19107;SDS011;9686;48.832;9.126;2023-07-29T00:57:54;3.03;;;2.37;;
19107;SDS011;9686;48.832;9.126;2023-07-29T01:00:20;2.60;;;2.37;;
19107;SDS011;9686;48.832;9.126;2023-07-29T01:02:46;3.10;;;2.23;;
19107;SDS011;9686;48.832;9.126;2023-07-29T01:05:12;3.53;;;2.07;;
19107;SDS011;9686;48.832;9.126;2023-07-29T01:07:42;4.50;;;2.13;;
19107;SDS011;9686;48.832;9.126;2023-07-29T01:16:10;2.23;;;2.00;;
19107;SDS011;9686;48.832;9.126;2023-07-29T01:18:42;2.10;;;2.00;;
19107;SDS011;9686;48.832;9.126;2023-07-29T01:21:12;4.53;;;2.00;;
19107;SDS011;9686;48.832;9.126;2023-07-29T01:23:39;2.30;;;2.10;;
19107;SDS011;9686;48.832;9.126;2023-07-29T01:26:04;2.77;;;1.90;;
19107;SDS011;9686;48.832;9.126;2023-07-29T01:28:30;3.37;;;2.10;;
19107;SDS011;9686;48.832;9.126;2023-07-29T01:31:07;2.63;;;2.30;;
19107;SDS011;9686;48.832;9.126;2023-07-29T01:33:48;2.10;;;1.83;;
19107;SDS011;9686;48.832;9.126;2023-07-29T01:36:36;8.03;;;2.20;;
19107;SDS011;9686;48.832;9.126;2023-07-29T01:39:05;2.00;;;1.90;;
19107;SDS011;9686;48.832;9.126;2023-07-29T01:41:31;2.90;;;1.93;;
19107;SDS011;9686;48.832;9.126;2023-07-29T01:43:56;2.60;;;1.83;;
19107;SDS011;9686;48.832;9.126;2023-07-29T01:46:22;3.40;;;2.00;;
19107;SDS011;9686;48.832;9.126;2023-07-29T01:48:48;4.37;;;1.97;;
19107;SDS011;9686;48.832;9.126;2023-07-29T01:51:13;2.10;;;1.90;;
19107;SDS011;9686;48.832;9.126;2023-07-29T01:53:38;2.30;;;2.03;;
19107;SDS011;9686;48.832;9.126;2023-07-29T01:56:04;3.40;;;2.10;;
19107;SDS011;9686;48.832;9.126;2023-07-29T01:58:29;2.00;;;1.80;;
19107;SDS011;9686;48.832;9.126;2023-07-29T02:00:54;4.10;;;2.10;;
19107;SDS011;9686;48.832;9.126;2023-07-29T02:03:20;4.87;;;1.93;;
19107;SDS011;9686;48.832;9.126;2023-07-29T02:05:45;2.63;;;1.90;;
19107;SDS011;9686;48.832;9.126;2023-07-29T02:08:10;1.93;;;1.83;;
19107;SDS011;9686;48.832;9.126;2023-07-29T02:10:36;4.47;;;2.27;;
19107;SDS011;9686;48.832;9.126;2023-07-29T02:13:02;3.73;;;2.00;;
19107;SDS011;9686;48.832;9.126;2023-07-29T02:15:28;3.50;;;2.00;;
19107;SDS011;9686;48.832;9.126;2023-07-29T02:17:53;3.17;;;2.23;;
19107;SDS011;9686;48.832;9.126;2023-07-29T02:20:19;2.87;;;2.00;;
19107;SDS011;9686;48.832;9.126;2023-07-29T02:22:44;2.77;;;2.10;;
19107;SDS011;9686;48.832;9.126;2023-07-29T02:25:09;3.23;;;1.90;;
19107;SDS011;9686;48.832;9.126;2023-07-29T02:27:35;3.00;;;1.80;;
19107;SDS011;9686;48.832;9.126;2023-07-29T02:30:00;4.00;;;1.90;;
19107;SDS011;9686;48.832;9.126;2023-07-29T02:32:26;2.83;;;2.00;;
19107;SDS011;9686;48.832;9.126;2023-07-29T02:34:51;3.07;;;2.10;;
19107;SDS011;9686;48.832;9.126;2023-07-29T02:37:16;3.93;;;2.00;;
19107;SDS011;9686;48.832;9.126;2023-07-29T02:39:42;1.97;;;1.77;;
19107;SDS011;9686;48.832;9.126;2023-07-29T02:42:07;2.47;;;2.10;;
19107;SDS011;9686;48.832;9.126;2023-07-29T02:44:32;2.10;;;1.90;;
19107;SDS011;9686;48.832;9.126;2023-07-29T02:46:58;2.10;;;1.90;;
19107;SDS011;9686;48.832;9.126;2023-07-29T02:49:23;3.13;;;2.23;;
19107;SDS011;9686;48.832;9.126;2023-07-29T02:51:48;3.70;;;2.13;;
19107;SDS011;9686;48.832;9.126;2023-07-29T02:54:14;5.37;;;2.40;;
19107;SDS011;9686;48.832;9.126;2023-07-29T02:56:39;2.67;;;2.47;;
19107;SDS011;9686;48.832;9.126;2023-07-29T02:59:04;2.53;;;2.13;;
19107;SDS011;9686;48.832;9.126;2023-07-29T03:01:30;3.97;;;2.40;;
19107;SDS011;9686;48.832;9.126;2023-07-29T03:03:55;2.43;;;2.23;;
19107;SDS011;9686;48.832;9.126;2023-07-29T03:06:21;5.60;;;2.30;;
19107;SDS011;9686;48.832;9.126;2023-07-29T03:08:46;4.53;;;2.30;;
19107;SDS011;9686;48.832;9.126;2023-07-29T03:11:12;4.70;;;2.40;;
19107;SDS011;9686;48.832;9.126;2023-07-29T03:13:38;2.20;;;2.00;;
19107;SDS011;9686;48.832;9.126;2023-07-29T03:16:10;2.87;;;2.40;;
19107;SDS011;9686;48.832;9.126;2023-07-29T03:18:40;4.17;;;2.67;;
19107;SDS011;9686;48.832;9.126;2023-07-29T03:21:06;2.20;;;2.00;;
19107;SDS011;9686;48.832;9.126;2023-07-29T03:23:33;2.50;;;2.30;;
19107;SDS011;9686;48.832;9.126;2023-07-29T03:25:59;2.50;;;2.13;;
19107;SDS011;9686;48.832;9.126;2023-07-29T03:28:26;3.30;;;2.30;;
19107;SDS011;9686;48.832;9.126;2023-07-29T03:30:53;3.03;;;2.37;;
19107;SDS011;9686;48.832;9.126;2023-07-29T03:33:18;3.33;;;2.20;;
19107;SDS011;9686;48.832;9.126;2023-07-29T03:35:44;3.07;;;2.13;;
19107;SDS011;9686;48.832;9.126;2023-07-29T03:38:10;2.43;;;2.20;;
19107;SDS011;9686;48.832;9.126;2023-07-29T03:40:36;3.53;;;2.00;;
19107;SDS011;9686;48.832;9.126;2023-07-29T03:43:01;2.63;;;2.30;;
19107;SDS011;9686;48.832;9.126;2023-07-29T03:45:27;2.33;;;2.13;;
19107;SDS011;9686;48.832;9.126;2023-07-29T03:47:52;4.80;;;2.40;;
19107;SDS011;9686;48.832;9.126;2023-07-29T03:50:17;3.57;;;2.20;;
19107;SDS011;9686;48.832;9.126;2023-07-29T03:52:42;2.43;;;2.23;;
19107;SDS011;9686;48.832;9.126;2023-07-29T03:55:08;4.70;;;2.40;;
19107;SDS011;9686;48.832;9.126;2023-07-29T03:57:34;5.17;;;2.70;;
19107;SDS011;9686;48.832;9.126;2023-07-29T03:59:59;6.40;;;2.40;;
19107;SDS011;9686;48.832;9.126;2023-07-29T04:02:24;5.43;;;2.77;;
19107;SDS011;9686;48.832;9.126;2023-07-29T04:04:49;6.93;;;3.17;;
19107;SDS011;9686;48.832;9.126;2023-07-29T04:07:15;5.10;;;2.90;;
19107;SDS011;9686;48.832;9.126;2023-07-29T04:09:40;6.23;;;3.10;;
19107;SDS011;9686;48.832;9.126;2023-07-29T04:12:06;5.07;;;3.60;;
19107;SDS011;9686;48.832;9.126;2023-07-29T04:14:31;5.77;;;3.30;;
19107;SDS011;9686;48.832;9.126;2023-07-29T04:16:57;5.70;;;3.03;;
19107;SDS011;9686;48.832;9.126;2023-07-29T04:19:22;3.63;;;3.10;;
19107;SDS011;9686;48.832;9.126;2023-07-29T04:21:47;5.57;;;3.17;;
19107;SDS011;9686;48.832;9.126;2023-07-29T04:24:13;3.67;;;2.73;;
19107;SDS011;9686;48.832;9.126;2023-07-29T04:26:38;6.63;;;2.90;;
19107;SDS011;9686;48.832;9.126;2023-07-29T04:29:04;8.73;;;3.10;;
19107;SDS011;9686;48.832;9.126;2023-07-29T04:31:29;6.87;;;2.80;;
19107;SDS011;9686;48.832;9.126;2023-07-29T04:33:55;7.30;;;3.00;;
19107;SDS011;9686;48.832;9.126;2023-07-29T04:36:20;6.73;;;2.90;;
19107;SDS011;9686;48.832;9.126;2023-07-29T04:38:45;6.30;;;3.30;;
19107;SDS011;9686;48.832;9.126;2023-07-29T04:41:10;5.77;;;3.33;;
19107;SDS011;9686;48.832;9.126;2023-07-29T04:43:36;7.53;;;3.60;;
19107;SDS011;9686;48.832;9.126;2023-07-29T04:46:01;8.73;;;3.43;;
19107;SDS011;9686;48.832;9.126;2023-07-29T04:48:26;12.27;;;4.07;;
19107;SDS011;9686;48.832;9.126;2023-07-29T04:50:52;6.60;;;3.60;;
19107;SDS011;9686;48.832;9.126;2023-07-29T04:53:17;8.27;;;3.00;;
19107;SDS011;9686;48.832;9.126;2023-07-29T04:55:43;6.57;;;3.23;;
19107;SDS011;9686;48.832;9.126;2023-07-29T04:58:08;11.73;;;4.03;;
19107;SDS011;9686;48.832;9.126;2023-07-29T05:00:34;6.30;;;3.53;;
19107;SDS011;9686;48.832;9.126;2023-07-29T05:02:59;8.77;;;3.97;;
19107;SDS011;9686;48.832;9.126;2023-07-29T05:05:26;9.73;;;3.90;;
19107;SDS011;9686;48.832;9.126;2023-07-29T05:07:51;9.87;;;3.70;;
19107;SDS011;9686;48.832;9.126;2023-07-29T05:10:16;7.30;;;4.27;;
19107;SDS011;9686;48.832;9.126;2023-07-29T05:12:42;9.97;;;4.23;;
19107;SDS011;9686;48.832;9.126;2023-07-29T05:15:07;7.97;;;4.40;;
19107;SDS011;9686;48.832;9.126;2023-07-29T05:17:33;7.27;;;3.87;;
19107;SDS011;9686;48.832;9.126;2023-07-29T05:19:58;5.33;;;3.60;;
19107;SDS011;9686;48.832;9.126;2023-07-29T05:22:24;5.30;;;3.60;;
19107;SDS011;9686;48.832;9.126;2023-07-29T05:24:49;10.17;;;4.60;;
19107;SDS011;9686;48.832;9.126;2023-07-29T05:27:15;9.70;;;4.00;;
19107;SDS011;9686;48.832;9.126;2023-07-29T05:29:40;12.23;;;4.73;;
19107;SDS011;9686;48.832;9.126;2023-07-29T05:32:05;6.80;;;4.07;;
19107;SDS011;9686;48.832;9.126;2023-07-29T05:34:31;5.80;;;3.90;;
19107;SDS011;9686;48.832;9.126;2023-07-29T05:36:56;4.37;;;3.97;;
19107;SDS011;9686;48.832;9.126;2023-07-29T05:39:21;6.13;;;3.87;;
19107;SDS011;9686;48.832;9.126;2023-07-29T05:41:47;4.37;;;3.23;;
19107;SDS011;9686;48.832;9.126;2023-07-29T05:44:12;6.70;;;3.60;;
19107;SDS011;9686;48.832;9.126;2023-07-29T05:46:37;6.27;;;3.53;;
19107;SDS011;9686;48.832;9.126;2023-07-29T05:49:03;4.27;;;3.70;;
19107;SDS011;9686;48.832;9.126;2023-07-29T05:51:28;4.90;;;3.70;;
19107;SDS011;9686;48.832;9.126;2023-07-29T05:53:53;6.40;;;3.80;;
19107;SDS011;9686;48.832;9.126;2023-07-29T05:56:18;5.27;;;4.13;;
19107;SDS011;9686;48.832;9.126;2023-07-29T05:58:44;5.77;;;3.47;;
19107;SDS011;9686;48.832;9.126;2023-07-29T06:01:09;5.43;;;3.50;;
19107;SDS011;9686;48.832;9.126;2023-07-29T06:03:34;4.83;;;3.37;;
19107;SDS011;9686;48.832;9.126;2023-07-29T06:06:00;8.40;;;3.90;;
19107;SDS011;9686;48.832;9.126;2023-07-29T06:08:25;5.87;;;3.70;;
19107;SDS011;9686;48.832;9.126;2023-07-29T06:10:53;6.67;;;3.77;;
19107;SDS011;9686;48.832;9.126;2023-07-29T06:13:18;5.97;;;3.90;;
19107;SDS011;9686;48.832;9.126;2023-07-29T06:15:44;6.70;;;4.17;;
19107;SDS011;9686;48.832;9.126;2023-07-29T06:18:09;6.00;;;4.03;;
19107;SDS011;9686;48.832;9.126;2023-07-29T06:20:34;5.37;;;3.70;;
19107;SDS011;9686;48.832;9.126;2023-07-29T06:23:00;5.27;;;3.67;;
19107;SDS011;9686;48.832;9.126;2023-07-29T06:25:25;5.17;;;3.53;;
19107;SDS011;9686;48.832;9.126;2023-07-29T06:27:50;4.30;;;3.43;;
19107;SDS011;9686;48.832;9.126;2023-07-29T06:30:15;3.97;;;3.30;;
19107;SDS011;9686;48.832;9.126;2023-07-29T06:32:41;3.50;;;3.20;;
19107;SDS011;9686;48.832;9.126;2023-07-29T06:35:06;6.80;;;3.40;;
19107;SDS011;9686;48.832;9.126;2023-07-29T06:37:32;6.37;;;3.60;;
19107;SDS011;9686;48.832;9.126;2023-07-29T06:39:58;5.87;;;3.30;;
19107;SDS011;9686;48.832;9.126;2023-07-29T06:42:23;6.97;;;3.77;;
19107;SDS011;9686;48.832;9.126;2023-07-29T06:44:48;4.97;;;4.20;;
19107;SDS011;9686;48.832;9.126;2023-07-29T06:47:14;4.30;;;3.90;;
19107;SDS011;9686;48.832;9.126;2023-07-29T06:49:39;6.90;;;3.90;;
19107;SDS011;9686;48.832;9.126;2023-07-29T06:52:04;7.33;;;4.00;;
19107;SDS011;9686;48.832;9.126;2023-07-29T06:54:30;7.03;;;4.27;;
19107;SDS011;9686;48.832;9.126;2023-07-29T06:56:55;6.30;;;4.53;;
19107;SDS011;9686;48.832;9.126;2023-07-29T06:59:20;7.20;;;4.50;;
19107;SDS011;9686;48.832;9.126;2023-07-29T07:01:46;4.67;;;4.00;;
19107;SDS011;9686;48.832;9.126;2023-07-29T07:04:11;4.53;;;3.87;;
19107;SDS011;9686;48.832;9.126;2023-07-29T07:06:36;3.53;;;2.73;;
19107;SDS011;9686;48.832;9.126;2023-07-29T07:09:02;2.70;;;2.50;;
19107;SDS011;9686;48.832;9.126;2023-07-29T07:11:27;3.83;;;2.03;;
19107;SDS011;9686;48.832;9.126;2023-07-29T07:13:53;7.60;;;2.53;;
19107;SDS011;9686;48.832;9.126;2023-07-29T07:16:18;4.93;;;2.70;;
19107;SDS011;9686;48.832;9.126;2023-07-29T07:18:43;4.60;;;2.60;;
19107;SDS011;9686;48.832;9.126;2023-07-29T07:21:08;2.63;;;2.43;;
19107;SDS011;9686;48.832;9.126;2023-07-29T07:23:34;2.73;;;2.50;;
19107;SDS011;9686;48.832;9.126;2023-07-29T07:25:59;6.10;;;3.10;;
19107;SDS011;9686;48.832;9.126;2023-07-29T07:28:24;3.13;;;2.77;;
19107;SDS011;9686;48.832;9.126;2023-07-29T07:30:50;2.43;;;2.23;;
19107;SDS011;9686;48.832;9.126;2023-07-29T07:33:15;4.00;;;2.80;;
19107;SDS011;9686;48.832;9.126;2023-07-29T07:35:40;3.43;;;2.40;;
19107;SDS011;9686;48.832;9.126;2023-07-29T07:38:07;6.87;;;2.87;;
19107;SDS011;9686;48.832;9.126;2023-07-29T07:40:34;3.10;;;2.30;;
19107;SDS011;9686;48.832;9.126;2023-07-29T07:43:00;2.43;;;2.23;;
19107;SDS011;9686;48.832;9.126;2023-07-29T07:45:25;3.37;;;2.40;;
19107;SDS011;9686;48.832;9.126;2023-07-29T07:47:51;3.83;;;2.20;;
19107;SDS011;9686;48.832;9.126;2023-07-29T07:50:18;2.60;;;2.10;;
19107;SDS011;9686;48.832;9.126;2023-07-29T07:52:43;2.20;;;2.00;;
19107;SDS011;9686;48.832;9.126;2023-07-29T07:55:09;2.30;;;2.10;;
19107;SDS011;9686;48.832;9.126;2023-07-29T07:57:34;2.50;;;2.30;;
19107;SDS011;9686;48.832;9.126;2023-07-29T07:59:59;4.27;;;2.00;;
19107;SDS011;9686;48.832;9.126;2023-07-29T08:02:24;2.63;;;2.10;;
19107;SDS011;9686;48.832;9.126;2023-07-29T08:04:50;2.20;;;2.00;;
19107;SDS011;9686;48.832;9.126;2023-07-29T08:07:15;2.00;;;1.70;;
19107;SDS011;9686;48.832;9.126;2023-07-29T08:09:40;1.90;;;1.70;;
19107;SDS011;9686;48.832;9.126;2023-07-29T08:12:06;1.93;;;1.77;;
19107;SDS011;9686;48.832;9.126;2023-07-29T08:14:31;1.73;;;1.60;;
19107;SDS011;9686;48.832;9.126;2023-07-29T08:16:56;5.40;;;1.43;;
19107;SDS011;9686;48.832;9.126;2023-07-29T08:19:22;1.60;;;1.50;;
19107;SDS011;9686;48.832;9.126;2023-07-29T08:21:47;5.10;;;1.50;;
19107;SDS011;9686;48.832;9.126;2023-07-29T08:24:13;2.40;;;1.50;;
19107;SDS011;9686;48.832;9.126;2023-07-29T08:26:38;2.40;;;1.53;;
19107;SDS011;9686;48.832;9.126;2023-07-29T08:29:03;1.47;;;1.37;;
19107;SDS011;9686;48.832;9.126;2023-07-29T08:31:29;1.97;;;1.67;;
19107;SDS011;9686;48.832;9.126;2023-07-29T08:33:55;1.53;;;1.33;;
19107;SDS011;9686;48.832;9.126;2023-07-29T08:36:20;2.43;;;1.60;;
19107;SDS011;9686;48.832;9.126;2023-07-29T08:38:46;2.37;;;1.23;;
19107;SDS011;9686;48.832;9.126;2023-07-29T08:41:16;1.50;;;1.10;;
19107;SDS011;9686;48.832;9.126;2023-07-29T08:43:59;1.90;;;1.30;;
19107;SDS011;9686;48.832;9.126;2023-07-29T08:46:31;1.57;;;1.47;;
19107;SDS011;9686;48.832;9.126;2023-07-29T08:48:57;1.57;;;1.47;;
19107;SDS011;9686;48.832;9.126;2023-07-29T08:51:24;1.60;;;1.47;;
19107;SDS011;9686;48.832;9.126;2023-07-29T08:53:50;3.37;;;1.47;;
19107;SDS011;9686;48.832;9.126;2023-07-29T08:56:16;1.53;;;1.17;;
19107;SDS011;9686;48.832;9.126;2023-07-29T08:58:41;1.77;;;1.50;;
19107;SDS011;9686;48.832;9.126;2023-07-29T09:01:08;1.93;;;1.23;;
19107;SDS011;9686;48.832;9.126;2023-07-29T09:03:33;1.90;;;1.70;;
19107;SDS011;9686;48.832;9.126;2023-07-29T09:05:58;1.73;;;1.50;;
19107;SDS011;9686;48.832;9.126;2023-07-29T09:08:26;1.63;;;1.20;;
19107;SDS011;9686;48.832;9.126;2023-07-29T09:10:52;1.47;;;1.37;;
19107;SDS011;9686;48.832;9.126;2023-07-29T09:13:18;1.80;;;1.40;;
19107;SDS011;9686;48.832;9.126;2023-07-29T09:15:45;2.10;;;1.30;;
19107;SDS011;9686;48.832;9.126;2023-07-29T09:18:19;1.63;;;1.13;;
19107;SDS011;9686;48.832;9.126;2023-07-29T09:20:48;1.40;;;1.30;;
19107;SDS011;9686;48.832;9.126;2023-07-29T09:23:14;0.90;;;0.90;;
19107;SDS011;9686;48.832;9.126;2023-07-29T09:25:40;2.03;;;1.43;;
19107;SDS011;9686;48.832;9.126;2023-07-29T09:28:09;2.07;;;1.33;;
19107;SDS011;9686;48.832;9.126;2023-07-29T09:30:39;1.27;;;1.00;;
19107;SDS011;9686;48.832;9.126;2023-07-29T09:33:07;1.00;;;1.00;;
19107;SDS011;9686;48.832;9.126;2023-07-29T09:35:33;1.40;;;1.30;;
19107;SDS011;9686;48.832;9.126;2023-07-29T09:38:00;1.70;;;1.23;;
19107;SDS011;9686;48.832;9.126;2023-07-29T09:40:36;1.23;;;1.13;;
19107;SDS011;9686;48.832;9.126;2023-07-29T09:43:05;1.60;;;1.17;;
19107;SDS011;9686;48.832;9.126;2023-07-29T09:45:32;1.37;;;1.23;;
19107;SDS011;9686;48.832;9.126;2023-07-29T09:47:59;1.87;;;1.10;;
19107;SDS011;9686;48.832;9.126;2023-07-29T09:50:25;1.87;;;1.13;;
19107;SDS011;9686;48.832;9.126;2023-07-29T09:52:52;1.23;;;1.13;;
19107;SDS011;9686;48.832;9.126;2023-07-29T09:55:21;6.53;;;1.80;;
19107;SDS011;9686;48.832;9.126;2023-07-29T09:57:58;1.70;;;1.20;;
19107;SDS011;9686;48.832;9.126;2023-07-29T10:00:31;1.43;;;1.33;;
19107;SDS011;9686;48.832;9.126;2023-07-29T10:02:58;1.67;;;1.10;;
19107;SDS011;9686;48.832;9.126;2023-07-29T10:05:28;1.57;;;1.47;;
19107;SDS011;9686;48.832;9.126;2023-07-29T10:07:54;1.43;;;1.30;;
19107;SDS011;9686;48.832;9.126;2023-07-29T10:10:20;1.23;;;1.20;;
19107;SDS011;9686;48.832;9.126;2023-07-29T10:12:46;2.87;;;1.10;;
19107;SDS011;9686;48.832;9.126;2023-07-29T10:15:12;2.80;;;0.97;;
19107;SDS011;9686;48.832;9.126;2023-07-29T10:17:38;0.80;;;0.80;;
19107;SDS011;9686;48.832;9.126;2023-07-29T10:20:05;1.53;;;1.10;;
19107;SDS011;9686;48.832;9.126;2023-07-29T10:22:36;2.20;;;1.07;;
19107;SDS011;9686;48.832;9.126;2023-07-29T10:25:03;0.90;;;0.90;;
19107;SDS011;9686;48.832;9.126;2023-07-29T10:27:35;1.23;;;1.00;;
19107;SDS011;9686;48.832;9.126;2023-07-29T10:30:08;1.00;;;1.00;;
19107;SDS011;9686;48.832;9.126;2023-07-29T10:32:35;1.10;;;1.00;;
19107;SDS011;9686;48.832;9.126;2023-07-29T10:35:01;3.93;;;1.27;;
19107;SDS011;9686;48.832;9.126;2023-07-29T10:37:27;2.10;;;1.17;;
19107;SDS011;9686;48.832;9.126;2023-07-29T10:39:53;1.20;;;1.10;;
19107;SDS011;9686;48.832;9.126;2023-07-29T10:42:20;1.20;;;1.10;;
19107;SDS011;9686;48.832;9.126;2023-07-29T10:44:46;1.37;;;1.20;;
19107;SDS011;9686;48.832;9.126;2023-07-29T10:47:27;1.63;;;1.10;;
19107;SDS011;9686;48.832;9.126;2023-07-29T10:49:57;1.27;;;1.00;;
19107;SDS011;9686;48.832;9.126;2023-07-29T10:52:31;1.73;;;0.90;;
19107;SDS011;9686;48.832;9.126;2023-07-29T10:55:04;1.47;;;1.30;;
19107;SDS011;9686;48.832;9.126;2023-07-29T10:57:48;1.10;;;0.90;;
19107;SDS011;9686;48.832;9.126;2023-07-29T11:00:14;1.00;;;0.90;;
19107;SDS011;9686;48.832;9.126;2023-07-29T11:02:40;1.10;;;1.00;;
19107;SDS011;9686;48.832;9.126;2023-07-29T11:05:18;1.27;;;1.10;;
19107;SDS011;9686;48.832;9.126;2023-07-29T11:07:44;2.03;;;1.30;;
19107;SDS011;9686;48.832;9.126;2023-07-29T11:10:11;2.03;;;1.00;;
19107;SDS011;9686;48.832;9.126;2023-07-29T11:15:14;1.20;;;1.10;;
19107;SDS011;9686;48.832;9.126;2023-07-29T11:17:40;1.13;;;1.13;;
19107;SDS011;9686;48.832;9.126;2023-07-29T11:20:07;1.20;;;1.00;;
19107;SDS011;9686;48.832;9.126;2023-07-29T11:22:33;2.60;;;1.10;;
19107;SDS011;9686;48.832;9.126;2023-07-29T11:24:59;2.67;;;1.10;;
19107;SDS011;9686;48.832;9.126;2023-07-29T11:27:24;1.20;;;1.10;;
19107;SDS011;9686;48.832;9.126;2023-07-29T11:29:50;0.93;;;0.93;;
19107;SDS011;9686;48.832;9.126;2023-07-29T11:32:15;1.20;;;1.10;;
19107;SDS011;9686;48.832;9.126;2023-07-29T11:34:41;1.67;;;1.07;;
19107;SDS011;9686;48.832;9.126;2023-07-29T11:37:08;0.83;;;0.80;;
19107;SDS011;9686;48.832;9.126;2023-07-29T11:39:41;1.10;;;1.00;;
19107;SDS011;9686;48.832;9.126;2023-07-29T11:42:10;1.93;;;1.00;;
19107;SDS011;9686;48.832;9.126;2023-07-29T11:44:36;1.30;;;1.20;;
19107;SDS011;9686;48.832;9.126;2023-07-29T11:47:02;1.27;;;1.00;;
19107;SDS011;9686;48.832;9.126;2023-07-29T11:49:32;1.23;;;1.10;;
19107;SDS011;9686;48.832;9.126;2023-07-29T11:51:58;1.17;;;1.07;;
19107;SDS011;9686;48.832;9.126;2023-07-29T11:54:23;1.23;;;1.10;;
19107;SDS011;9686;48.832;9.126;2023-07-29T11:56:50;1.33;;;1.07;;
19107;SDS011;9686;48.832;9.126;2023-07-29T11:59:15;0.90;;;0.90;;
19107;SDS011;9686;48.832;9.126;2023-07-29T12:01:41;1.30;;;1.20;;
19107;SDS011;9686;48.832;9.126;2023-07-29T12:04:06;1.70;;;1.00;;
19107;SDS011;9686;48.832;9.126;2023-07-29T12:06:32;1.30;;;0.93;;
19107;SDS011;9686;48.832;9.126;2023-07-29T12:08:57;1.27;;;1.17;;
19107;SDS011;9686;48.832;9.126;2023-07-29T12:11:23;1.48;;;1.38;;
19107;SDS011;9686;48.832;9.126;2023-07-29T12:13:48;1.42;;;1.33;;
19107;SDS011;9686;48.832;9.126;2023-07-29T12:16:17;1.38;;;1.20;;
19107;SDS011;9686;48.832;9.126;2023-07-29T12:18:45;1.52;;;1.42;;
19107;SDS011;9686;48.832;9.126;2023-07-29T12:21:10;2.13;;;1.40;;
19107;SDS011;9686;48.832;9.126;2023-07-29T12:23:38;1.87;;;1.40;;
19107;SDS011;9686;48.832;9.126;2023-07-29T12:26:04;2.00;;;1.10;;
19107;SDS011;9686;48.832;9.126;2023-07-29T12:28:29;4.50;;;1.30;;
19107;SDS011;9686;48.832;9.126;2023-07-29T12:30:55;2.92;;;1.30;;
19107;SDS011;9686;48.832;9.126;2023-07-29T12:33:31;2.63;;;1.50;;
19107;SDS011;9686;48.832;9.126;2023-07-29T12:36:00;8.73;;;7.90;;
19107;SDS011;9686;48.832;9.126;2023-07-29T12:38:26;2.00;;;1.50;;
19107;SDS011;9686;48.832;9.126;2023-07-29T12:40:51;2.13;;;1.30;;
19107;SDS011;9686;48.832;9.126;2023-07-29T12:43:17;1.60;;;1.50;;
19107;SDS011;9686;48.832;9.126;2023-07-29T12:45:42;1.33;;;1.10;;
19107;SDS011;9686;48.832;9.126;2023-07-29T12:48:08;1.40;;;1.30;;
19107;SDS011;9686;48.832;9.126;2023-07-29T12:50:34;1.20;;;1.07;;
19107;SDS011;9686;48.832;9.126;2023-07-29T12:52:59;2.43;;;1.30;;
19107;SDS011;9686;48.832;9.126;2023-07-29T12:55:25;2.23;;;1.80;;
19107;SDS011;9686;48.832;9.126;2023-07-29T12:57:50;2.20;;;1.20;;
19107;SDS011;9686;48.832;9.126;2023-07-29T13:00:16;1.48;;;1.38;;
19107;SDS011;9686;48.832;9.126;2023-07-29T13:02:41;1.80;;;1.50;;
19107;SDS011;9686;48.832;9.126;2023-07-29T13:05:09;1.50;;;1.40;;
19107;SDS011;9686;48.832;9.126;2023-07-29T13:07:36;1.40;;;1.30;;
19107;SDS011;9686;48.832;9.126;2023-07-29T13:10:02;2.30;;;1.50;;
19107;SDS011;9686;48.832;9.126;2023-07-29T13:12:28;1.80;;;1.40;;
19107;SDS011;9686;48.832;9.126;2023-07-29T13:14:54;2.30;;;1.40;;
19107;SDS011;9686;48.832;9.126;2023-07-29T13:17:21;1.40;;;1.30;;
19107;SDS011;9686;48.832;9.126;2023-07-29T13:19:47;1.30;;;1.20;;
19107;SDS011;9686;48.832;9.126;2023-07-29T13:22:12;1.33;;;1.20;;
19107;SDS011;9686;48.832;9.126;2023-07-29T13:24:37;1.33;;;1.23;;
19107;SDS011;9686;48.832;9.126;2023-07-29T13:27:03;4.32;;;1.40;;
19107;SDS011;9686;48.832;9.126;2023-07-29T13:29:28;1.63;;;1.48;;
19107;SDS011;9686;48.832;9.126;2023-07-29T13:31:54;1.40;;;1.30;;
19107;SDS011;9686;48.832;9.126;2023-07-29T13:34:19;1.90;;;1.70;;
19107;SDS011;9686;48.832;9.126;2023-07-29T13:36:44;1.52;;;1.30;;
19107;SDS011;9686;48.832;9.126;2023-07-29T13:39:09;1.30;;;1.20;;
19107;SDS011;9686;48.832;9.126;2023-07-29T13:41:35;1.58;;;1.20;;
19107;SDS011;9686;48.832;9.126;2023-07-29T13:44:00;2.08;;;1.15;;
19107;SDS011;9686;48.832;9.126;2023-07-29T13:46:25;1.70;;;1.33;;
19107;SDS011;9686;48.832;9.126;2023-07-29T13:48:51;1.33;;;1.20;;
19107;SDS011;9686;48.832;9.126;2023-07-29T13:51:16;2.58;;;1.27;;
19107;SDS011;9686;48.832;9.126;2023-07-29T13:53:41;1.40;;;1.30;;
19107;SDS011;9686;48.832;9.126;2023-07-29T13:56:06;1.33;;;1.23;;
19107;SDS011;9686;48.832;9.126;2023-07-29T13:58:32;1.70;;;1.60;;
19107;SDS011;9686;48.832;9.126;2023-07-29T14:00:57;2.30;;;1.60;;
19107;SDS011;9686;48.832;9.126;2023-07-29T14:03:23;1.58;;;1.35;;
19107;SDS011;9686;48.832;9.126;2023-07-29T14:05:48;1.73;;;1.20;;
19107;SDS011;9686;48.832;9.126;2023-07-29T14:08:14;1.30;;;1.20;;
19107;SDS011;9686;48.832;9.126;2023-07-29T14:10:39;1.30;;;1.20;;
19107;SDS011;9686;48.832;9.126;2023-07-29T14:13:04;2.58;;;1.42;;
19107;SDS011;9686;48.832;9.126;2023-07-29T14:15:29;1.48;;;1.38;;
19107;SDS011;9686;48.832;9.126;2023-07-29T14:17:57;3.42;;;1.50;;
19107;SDS011;9686;48.832;9.126;2023-07-29T14:20:22;2.97;;;1.60;;
19107;SDS011;9686;48.832;9.126;2023-07-29T14:22:48;1.55;;;1.45;;
19107;SDS011;9686;48.832;9.126;2023-07-29T14:25:13;1.08;;;1.00;;
19107;SDS011;9686;48.832;9.126;2023-07-29T14:27:39;1.50;;;1.40;;
19107;SDS011;9686;48.832;9.126;2023-07-29T14:30:04;3.38;;;1.63;;
19107;SDS011;9686;48.832;9.126;2023-07-29T14:32:30;2.13;;;1.33;;
19107;SDS011;9686;48.832;9.126;2023-07-29T14:34:55;3.10;;;1.40;;
19107;SDS011;9686;48.832;9.126;2023-07-29T14:37:21;2.40;;;1.20;;
19107;SDS011;9686;48.832;9.126;2023-07-29T14:39:46;1.50;;;1.40;;
19107;SDS011;9686;48.832;9.126;2023-07-29T14:42:11;2.03;;;1.60;;
19107;SDS011;9686;48.832;9.126;2023-07-29T14:44:36;1.65;;;1.35;;
19107;SDS011;9686;48.832;9.126;2023-07-29T14:47:02;1.50;;;1.40;;
19107;SDS011;9686;48.832;9.126;2023-07-29T14:49:27;1.57;;;1.40;;
19107;SDS011;9686;48.832;9.126;2023-07-29T14:51:52;1.60;;;1.50;;
19107;SDS011;9686;48.832;9.126;2023-07-29T14:54:18;1.23;;;1.15;;
19107;SDS011;9686;48.832;9.126;2023-07-29T14:56:43;2.58;;;1.65;;
19107;SDS011;9686;48.832;9.126;2023-07-29T14:59:08;1.80;;;1.67;;
19107;SDS011;9686;48.832;9.126;2023-07-29T15:01:34;2.15;;;1.50;;
19107;SDS011;9686;48.832;9.126;2023-07-29T15:03:59;2.05;;;1.50;;